sensor_id;sensor_type;location;lat;lon;timestamp;pressure;altitude;pressure_sealevel;temperature;humidity
58843;BME280;44614;54.356;10.100;2022-11-14T00:01:21;102074.09;;;8.37;100.00
58843;BME280;44614;54.356;10.100;2022-11-14T00:03:49;102072.38;;;8.36;100.00
58843;BME280;44614;54.356;10.100;2022-11-14T00:06:15;102066.22;;;8.34;100.00
58843;BME280;44614;54.356;10.100;2022-11-14T00:08:40;102062.81;;;8.32;100.00
58843;BME280;44614;54.356;10.100;2022-11-14T00:11:05;102055.47;;;8.33;100.00
58843;BME280;44614;54.356;10.100;2022-11-14T00:13:31;102045.75;;;8.22;100.00
58843;BME280;44614;54.356;10.100;2022-11-14T00:15:56;102027.00;;;8.11;100.00
58843;BME280;44614;54.356;10.100;2022-11-14T00:18:22;102056.66;;;8.30;100.00
58843;BME280;44614;54.356;10.100;2022-11-14T00:20:51;102051.38;;;8.28;100.00
58843;BME280;44614;54.356;10.100;2022-11-14T00:23:18;102027.84;;;8.11;100.00
58843;BME280;44614;54.356;10.100;2022-11-14T00:25:45;102047.94;;;8.26;100.00
58843;BME280;44614;54.356;10.100;2022-11-14T00:28:10;102045.41;;;8.25;100.00
58843;BME280;44614;54.356;10.100;2022-11-14T00:30:36;102052.56;;;8.26;100.00
58843;BME280;44614;54.356;10.100;2022-11-14T00:33:01;102038.41;;;8.22;100.00
58843;BME280;44614;54.356;10.100;2022-11-14T00:35:26;102036.34;;;8.24;100.00
58843;BME280;44614;54.356;10.100;2022-11-14T00:37:52;102047.44;;;8.23;100.00
58843;BME280;44614;54.356;10.100;2022-11-14T00:40:17;102032.91;;;8.22;100.00
58843;BME280;44614;54.356;10.100;2022-11-14T00:42:43;102026.75;;;8.20;100.00
58843;BME280;44614;54.356;10.100;2022-11-14T00:45:09;102032.63;;;8.17;100.00
58843;BME280;44614;54.356;10.100;2022-11-14T00:47:34;102016.53;;;8.14;100.00
58843;BME280;44614;54.356;10.100;2022-11-14T00:50:00;101997.81;;;7.95;100.00
58843;BME280;44614;54.356;10.100;2022-11-14T00:52:25;102013.00;;;8.05;100.00
58843;BME280;44614;54.356;10.100;2022-11-14T00:54:51;102010.28;;;7.97;100.00
58843;BME280;44614;54.356;10.100;2022-11-14T00:57:16;102021.41;;;7.96;100.00
58843;BME280;44614;54.356;10.100;2022-11-14T00:59:41;102011.84;;;7.92;100.00
58843;BME280;44614;54.356;10.100;2022-11-14T01:02:07;102004.69;;;7.91;100.00
58843;BME280;44614;54.356;10.100;2022-11-14T01:04:32;101999.56;;;7.88;100.00
58843;BME280;44614;54.356;10.100;2022-11-14T01:06:57;101991.91;;;7.83;100.00
58843;BME280;44614;54.356;10.100;2022-11-14T01:09:23;101997.03;;;7.86;100.00
58843;BME280;44614;54.356;10.100;2022-11-14T01:11:48;102007.97;;;7.86;100.00
58843;BME280;44614;54.356;10.100;2022-11-14T01:14:13;101995.28;;;7.85;100.00
58843;BME280;44614;54.356;10.100;2022-11-14T01:16:38;101991.22;;;7.81;100.00
58843;BME280;44614;54.356;10.100;2022-11-14T01:19:04;101981.31;;;7.80;100.00
58843;BME280;44614;54.356;10.100;2022-11-14T01:21:29;101972.91;;;7.81;100.00
58843;BME280;44614;54.356;10.100;2022-11-14T01:23:55;101976.69;;;7.80;100.00
58843;BME280;44614;54.356;10.100;2022-11-14T01:26:20;101971.06;;;7.74;100.00
58843;BME280;44614;54.356;10.100;2022-11-14T01:28:46;101972.41;;;7.78;100.00
58843;BME280;44614;54.356;10.100;2022-11-14T01:31:15;101975.53;;;7.75;100.00
58843;BME280;44614;54.356;10.100;2022-11-14T01:33:41;101971.06;;;7.74;100.00
58843;BME280;44614;54.356;10.100;2022-11-14T01:36:08;101960.50;;;7.71;100.00
58843;BME280;44614;54.356;10.100;2022-11-14T01:38:34;101969.56;;;7.71;100.00
58843;BME280;44614;54.356;10.100;2022-11-14T01:41:00;101933.22;;;7.54;100.00
58843;BME280;44614;54.356;10.100;2022-11-14T01:43:31;101959.81;;;7.69;100.00
58843;BME280;44614;54.356;10.100;2022-11-14T01:51:13;101947.22;;;7.60;100.00
58843;BME280;44614;54.356;10.100;2022-11-14T01:53:40;101941.91;;;7.58;100.00
58843;BME280;44614;54.356;10.100;2022-11-14T01:56:07;101942.09;;;7.56;100.00
58843;BME280;44614;54.356;10.100;2022-11-14T01:58:34;101929.28;;;7.57;100.00
58843;BME280;44614;54.356;10.100;2022-11-14T02:01:01;101930.81;;;7.60;100.00
58843;BME280;44614;54.356;10.100;2022-11-14T02:03:27;101906.22;;;7.51;100.00
58843;BME280;44614;54.356;10.100;2022-11-14T02:05:53;101911.69;;;7.51;100.00
58843;BME280;44614;54.356;10.100;2022-11-14T02:08:21;101917.16;;;7.60;100.00
58843;BME280;44614;54.356;10.100;2022-11-14T02:10:47;101900.41;;;7.54;100.00
58843;BME280;44614;54.356;10.100;2022-11-14T02:13:12;101897.38;;;7.49;100.00
58843;BME280;44614;54.356;10.100;2022-11-14T02:15:38;101900.25;;;7.56;100.00
58843;BME280;44614;54.356;10.100;2022-11-14T02:18:03;101900.91;;;7.58;100.00
58843;BME280;44614;54.356;10.100;2022-11-14T02:20:34;101892.53;;;7.60;100.00
58843;BME280;44614;54.356;10.100;2022-11-14T02:23:00;101880.56;;;7.61;100.00
58843;BME280;44614;54.356;10.100;2022-11-14T02:25:25;101879.53;;;7.62;100.00
58843;BME280;44614;54.356;10.100;2022-11-14T02:27:51;101875.09;;;7.61;100.00
58843;BME280;44614;54.356;10.100;2022-11-14T02:30:20;101871.53;;;7.60;100.00
58843;BME280;44614;54.356;10.100;2022-11-14T02:32:46;101871.69;;;7.58;100.00
58843;BME280;44614;54.356;10.100;2022-11-14T02:35:11;101870.69;;;7.60;100.00
58843;BME280;44614;54.356;10.100;2022-11-14T02:37:37;101871.69;;;7.58;100.00
58843;BME280;44614;54.356;10.100;2022-11-14T02:40:03;101875.25;;;7.59;100.00
58843;BME280;44614;54.356;10.100;2022-11-14T02:42:28;101859.41;;;7.54;100.00
58843;BME280;44614;54.356;10.100;2022-11-14T02:44:54;101861.59;;;7.59;100.00
58843;BME280;44614;54.356;10.100;2022-11-14T02:47:19;101859.75;;;7.60;100.00
58843;BME280;44614;54.356;10.100;2022-11-14T02:49:44;101843.34;;;7.51;100.00
58843;BME280;44614;54.356;10.100;2022-11-14T02:52:10;101855.97;;;7.61;100.00
58843;BME280;44614;54.356;10.100;2022-11-14T02:54:35;101847.41;;;7.64;100.00
58843;BME280;44614;54.356;10.100;2022-11-14T02:57:00;101847.56;;;7.62;100.00
58843;BME280;44614;54.356;10.100;2022-11-14T02:59:26;101852.19;;;7.62;100.00
58843;BME280;44614;54.356;10.100;2022-11-14T03:01:51;101843.16;;;7.61;100.00
58843;BME280;44614;54.356;10.100;2022-11-14T03:04:16;101835.13;;;7.60;100.00
58843;BME280;44614;54.356;10.100;2022-11-14T03:06:42;101827.09;;;7.58;100.00
58843;BME280;44614;54.356;10.100;2022-11-14T03:09:07;101830.19;;;7.55;100.00
58843;BME280;44614;54.356;10.100;2022-11-14T03:11:32;101834.81;;;7.54;100.00
58843;BME280;44614;54.356;10.100;2022-11-14T03:13:58;101824.91;;;7.53;100.00
58843;BME280;44614;54.356;10.100;2022-11-14T03:16:24;101814.69;;;7.47;100.00
58843;BME280;44614;54.356;10.100;2022-11-14T03:18:49;101826.78;;;7.53;100.00
58843;BME280;44614;54.356;10.100;2022-11-14T03:21:19;101824.41;;;7.50;100.00
58843;BME280;44614;54.356;10.100;2022-11-14T03:23:44;101827.16;;;7.50;100.00
58843;BME280;44614;54.356;10.100;2022-11-14T03:26:11;101804.84;;;7.38;100.00
58843;BME280;44614;54.356;10.100;2022-11-14T03:28:37;101813.66;;;7.48;100.00
58843;BME280;44614;54.356;10.100;2022-11-14T03:31:03;101805.63;;;7.47;100.00
58843;BME280;44614;54.356;10.100;2022-11-14T03:33:30;101810.09;;;7.48;100.00
58843;BME280;44614;54.356;10.100;2022-11-14T03:35:55;101814.69;;;7.47;100.00
58843;BME280;44614;54.356;10.100;2022-11-14T03:38:21;101812.97;;;7.46;100.00
58843;BME280;44614;54.356;10.100;2022-11-14T03:40:48;101816.56;;;7.47;100.00
58843;BME280;44614;54.356;10.100;2022-11-14T03:43:14;101798.69;;;7.36;100.00
58843;BME280;44614;54.356;10.100;2022-11-14T03:45:40;101805.31;;;7.42;100.00
58843;BME280;44614;54.356;10.100;2022-11-14T03:48:05;101807.56;;;7.38;100.00
58843;BME280;44614;54.356;10.100;2022-11-14T03:50:31;101804.16;;;7.36;100.00
58843;BME280;44614;54.356;10.100;2022-11-14T03:52:56;101790.53;;;7.28;100.00
58843;BME280;44614;54.356;10.100;2022-11-14T03:55:21;101805.19;;;7.35;100.00
58843;BME280;44614;54.356;10.100;2022-11-14T03:57:47;101803.50;;;7.34;100.00
58843;BME280;44614;54.356;10.100;2022-11-14T04:00:12;101796.13;;;7.35;100.00
58843;BME280;44614;54.356;10.100;2022-11-14T04:02:37;101787.25;;;7.32;100.00
58843;BME280;44614;54.356;10.100;2022-11-14T04:05:03;101791.88;;;7.32;100.00
58843;BME280;44614;54.356;10.100;2022-11-14T04:07:28;101813.06;;;7.30;100.00
58843;BME280;44614;54.356;10.100;2022-11-14T04:09:54;101803.34;;;7.27;100.00
58843;BME280;44614;54.356;10.100;2022-11-14T04:12:19;101790.41;;;7.21;100.00
58843;BME280;44614;54.356;10.100;2022-11-14T04:14:44;101778.78;;;7.19;100.00
58843;BME280;44614;54.356;10.100;2022-11-14T04:17:10;101778.59;;;7.21;100.00
58843;BME280;44614;54.356;10.100;2022-11-14T04:19:35;101763.09;;;7.21;100.00
58843;BME280;44614;54.356;10.100;2022-11-14T04:22:00;101770.59;;;7.19;100.00
58843;BME280;44614;54.356;10.100;2022-11-14T04:24:26;101767.69;;;7.21;100.00
58843;BME280;44614;54.356;10.100;2022-11-14T04:26:51;101759.47;;;7.21;100.00
58843;BME280;44614;54.356;10.100;2022-11-14T04:29:17;101750.63;;;7.19;100.00
58843;BME280;44614;54.356;10.100;2022-11-14T04:31:42;101754.69;;;7.23;100.00
58843;BME280;44614;54.356;10.100;2022-11-14T04:34:07;101752.16;;;7.21;100.00
58843;BME280;44614;54.356;10.100;2022-11-14T04:36:33;101756.75;;;7.21;100.00
58843;BME280;44614;54.356;10.100;2022-11-14T04:38:58;101753.16;;;7.20;100.00
58843;BME280;44614;54.356;10.100;2022-11-14T04:41:23;101750.97;;;7.16;100.00
58843;BME280;44614;54.356;10.100;2022-11-14T04:43:48;101742.78;;;7.16;100.00
58843;BME280;44614;54.356;10.100;2022-11-14T04:46:14;101748.25;;;7.16;100.00
58843;BME280;44614;54.356;10.100;2022-11-14T04:48:39;101742.97;;;7.14;100.00
58843;BME280;44614;54.356;10.100;2022-11-14T04:51:04;101729.66;;;7.11;100.00
58843;BME280;44614;54.356;10.100;2022-11-14T04:53:30;101723.38;;;7.11;100.00
58843;BME280;44614;54.356;10.100;2022-11-14T04:55:55;101719.94;;;7.08;100.00
58843;BME280;44614;54.356;10.100;2022-11-14T04:58:20;101733.06;;;7.13;100.00
58843;BME280;44614;54.356;10.100;2022-11-14T05:00:46;101737.03;;;7.11;100.00
58843;BME280;44614;54.356;10.100;2022-11-14T05:03:11;101729.47;;;7.13;100.00
58843;BME280;44614;54.356;10.100;2022-11-14T05:05:36;101731.38;;;7.12;100.00
58843;BME280;44614;54.356;10.100;2022-11-14T05:08:02;101730.53;;;7.12;100.00
58843;BME280;44614;54.356;10.100;2022-11-14T05:10:27;101698.69;;;6.96;100.00
58843;BME280;44614;54.356;10.100;2022-11-14T05:12:53;101705.97;;;7.03;100.00
58843;BME280;44614;54.356;10.100;2022-11-14T05:15:19;101732.91;;;7.15;100.00
58843;BME280;44614;54.356;10.100;2022-11-14T05:17:44;101717.53;;;7.14;100.00
58843;BME280;44614;54.356;10.100;2022-11-14T05:20:10;101717.91;;;7.11;100.00
58843;BME280;44614;54.356;10.100;2022-11-14T05:22:35;101727.09;;;7.09;100.00
58843;BME280;44614;54.356;10.100;2022-11-14T05:25:00;101727.47;;;7.06;100.00
58843;BME280;44614;54.356;10.100;2022-11-14T05:27:26;101728.97;;;7.09;100.00
58843;BME280;44614;54.356;10.100;2022-11-14T05:29:52;101719.09;;;7.08;100.00
58843;BME280;44614;54.356;10.100;2022-11-14T05:32:19;101720.97;;;7.07;100.00
58843;BME280;44614;54.356;10.100;2022-11-14T05:34:44;101721.63;;;7.09;100.00
58843;BME280;44614;54.356;10.100;2022-11-14T05:37:09;101709.03;;;7.08;100.00
58843;BME280;44614;54.356;10.100;2022-11-14T05:39:35;101718.25;;;7.07;100.00
58843;BME280;44614;54.356;10.100;2022-11-14T05:42:00;101711.09;;;7.06;100.00
58843;BME280;44614;54.356;10.100;2022-11-14T05:44:25;101691.16;;;6.98;100.00
58843;BME280;44614;54.356;10.100;2022-11-14T05:46:50;101693.19;;;7.04;100.00
58843;BME280;44614;54.356;10.100;2022-11-14T05:49:16;101685.69;;;6.98;100.00
58843;BME280;44614;54.356;10.100;2022-11-14T05:51:41;101693.19;;;7.04;100.00
58843;BME280;44614;54.356;10.100;2022-11-14T05:54:06;101706.63;;;7.05;100.00
58843;BME280;44614;54.356;10.100;2022-11-14T05:56:32;101697.78;;;7.03;100.00
58843;BME280;44614;54.356;10.100;2022-11-14T05:58:57;101699.47;;;7.04;100.00
58843;BME280;44614;54.356;10.100;2022-11-14T06:01:22;101705.13;;;7.03;100.00
58843;BME280;44614;54.356;10.100;2022-11-14T06:03:48;101703.41;;;7.02;100.00
58843;BME280;44614;54.356;10.100;2022-11-14T06:06:17;101695.75;;;6.97;100.00
58843;BME280;44614;54.356;10.100;2022-11-14T06:08:42;101690.00;;;6.92;100.00
58843;BME280;44614;54.356;10.100;2022-11-14T06:11:13;101702.25;;;6.96;100.00
58843;BME280;44614;54.356;10.100;2022-11-14T06:13:39;101708.75;;;6.95;100.00
58843;BME280;44614;54.356;10.100;2022-11-14T06:16:10;101703.66;;;6.92;100.00
58843;BME280;44614;54.356;10.100;2022-11-14T06:18:36;101704.31;;;6.94;100.00
58843;BME280;44614;54.356;10.100;2022-11-14T06:21:06;101697.84;;;6.95;100.00
58843;BME280;44614;54.356;10.100;2022-11-14T06:23:32;101703.09;;;6.97;100.00
58843;BME280;44614;54.356;10.100;2022-11-14T06:26:02;101713.38;;;6.95;100.00
58843;BME280;44614;54.356;10.100;2022-11-14T06:28:27;101708.75;;;6.95;100.00
58843;BME280;44614;54.356;10.100;2022-11-14T06:30:57;101706.72;;;6.89;100.00
58843;BME280;44614;54.356;10.100;2022-11-14T06:33:24;101715.59;;;6.91;100.00
58843;BME280;44614;54.356;10.100;2022-11-14T06:35:49;101711.66;;;6.94;100.00
58843;BME280;44614;54.356;10.100;2022-11-14T06:38:14;101711.66;;;6.94;100.00
58843;BME280;44614;54.356;10.100;2022-11-14T06:40:40;101711.66;;;6.94;100.00
58843;BME280;44614;54.356;10.100;2022-11-14T06:43:05;101708.91;;;6.94;100.00
58843;BME280;44614;54.356;10.100;2022-11-14T06:45:30;101690.56;;;6.79;100.00
58843;BME280;44614;54.356;10.100;2022-11-14T06:47:59;101712.88;;;6.91;100.00
58843;BME280;44614;54.356;10.100;2022-11-14T06:50:24;101703.34;;;6.87;100.00
58843;BME280;44614;54.356;10.100;2022-11-14T06:52:50;101712.03;;;6.91;100.00
58843;BME280;44614;54.356;10.100;2022-11-14T06:55:15;101717.31;;;6.92;100.00
58843;BME280;44614;54.356;10.100;2022-11-14T06:57:40;101717.97;;;6.94;100.00
58843;BME280;44614;54.356;10.100;2022-11-14T07:00:06;101707.75;;;6.88;100.00
58843;BME280;44614;54.356;10.100;2022-11-14T07:02:32;101723.41;;;6.94;100.00
58843;BME280;44614;54.356;10.100;2022-11-14T07:04:57;101717.81;;;6.96;100.00
58843;BME280;44614;54.356;10.100;2022-11-14T07:07:22;101718.66;;;6.96;100.00
58843;BME280;44614;54.356;10.100;2022-11-14T07:09:48;101719.16;;;7.00;100.00
58843;BME280;44614;54.356;10.100;2022-11-14T07:12:13;101716.41;;;7.00;100.00
58843;BME280;44614;54.356;10.100;2022-11-14T07:14:39;101722.53;;;7.02;100.00
58843;BME280;44614;54.356;10.100;2022-11-14T07:17:04;101712.47;;;7.02;100.00
58843;BME280;44614;54.356;10.100;2022-11-14T07:19:29;101718.25;;;7.07;100.00
58843;BME280;44614;54.356;10.100;2022-11-14T07:21:55;101707.50;;;7.06;100.00
58843;BME280;44614;54.356;10.100;2022-11-14T07:24:20;101708.53;;;7.05;100.00
58843;BME280;44614;54.356;10.100;2022-11-14T07:26:45;101709.75;;;7.02;100.00
58843;BME280;44614;54.356;10.100;2022-11-14T07:29:11;101714.34;;;7.02;100.00
58843;BME280;44614;54.356;10.100;2022-11-14T07:31:36;101715.22;;;7.02;100.00
58843;BME280;44614;54.356;10.100;2022-11-14T07:34:01;101707.03;;;7.02;100.00
58843;BME280;44614;54.356;10.100;2022-11-14T07:36:26;101701.56;;;7.02;100.00
58843;BME280;44614;54.356;10.100;2022-11-14T07:38:52;101699.00;;;7.01;100.00
58843;BME280;44614;54.356;10.100;2022-11-14T07:41:17;101700.88;;;7.00;100.00
58843;BME280;44614;54.356;10.100;2022-11-14T07:43:43;101695.41;;;7.00;100.00
58843;BME280;44614;54.356;10.100;2022-11-14T07:46:14;101692.03;;;6.98;100.00
58843;BME280;44614;54.356;10.100;2022-11-14T07:48:40;101708.03;;;7.01;100.00
58843;BME280;44614;54.356;10.100;2022-11-14T07:51:09;101699.34;;;6.98;100.00
58843;BME280;44614;54.356;10.100;2022-11-14T07:53:35;101693.38;;;6.94;100.00
58843;BME280;44614;54.356;10.100;2022-11-14T07:56:02;101694.06;;;6.96;100.00
58843;BME280;44614;54.356;10.100;2022-11-14T07:58:28;101691.16;;;6.98;100.00
58843;BME280;44614;54.356;10.100;2022-11-14T08:00:53;101699.03;;;6.93;100.00
58843;BME280;44614;54.356;10.100;2022-11-14T08:03:19;101690.84;;;6.93;100.00
58843;BME280;44614;54.356;10.100;2022-11-14T08:05:44;101694.25;;;6.95;100.00
58843;BME280;44614;54.356;10.100;2022-11-14T08:08:09;101696.50;;;6.91;100.00
58843;BME280;44614;54.356;10.100;2022-11-14T08:10:34;101687.91;;;6.94;100.00
58843;BME280;44614;54.356;10.100;2022-11-14T08:13:02;101680.09;;;6.91;100.00
58843;BME280;44614;54.356;10.100;2022-11-14T08:15:28;101690.50;;;6.96;100.00
58843;BME280;44614;54.356;10.100;2022-11-14T08:17:57;101689.28;;;6.98;100.00
58843;BME280;44614;54.356;10.100;2022-11-14T08:20:23;101677.13;;;7.01;100.00
58843;BME280;44614;54.356;10.100;2022-11-14T08:22:48;101684.78;;;7.05;100.00
58843;BME280;44614;54.356;10.100;2022-11-14T08:25:14;101684.13;;;7.03;100.00
58843;BME280;44614;54.356;10.100;2022-11-14T08:27:39;101683.78;;;7.06;100.00
58843;BME280;44614;54.356;10.100;2022-11-14T08:30:05;101675.94;;;7.03;100.00
58843;BME280;44614;54.356;10.100;2022-11-14T08:32:30;101682.94;;;7.06;100.00
58843;BME280;44614;54.356;10.100;2022-11-14T08:34:55;101677.81;;;7.03;100.00
58843;BME280;44614;54.356;10.100;2022-11-14T08:37:21;101688.06;;;7.01;100.00
58843;BME280;44614;54.356;10.100;2022-11-14T08:39:46;101682.44;;;7.02;100.00
58843;BME280;44614;54.356;10.100;2022-11-14T08:42:11;101674.25;;;7.02;100.00
58843;BME280;44614;54.356;10.100;2022-11-14T08:44:37;101682.94;;;7.06;100.00
58843;BME280;44614;54.356;10.100;2022-11-14T08:47:02;101668.44;;;6.97;100.00
58843;BME280;44614;54.356;10.100;2022-11-14T08:49:28;101676.09;;;7.10;100.00
58843;BME280;44614;54.356;10.100;2022-11-14T08:51:53;101675.19;;;7.09;99.66
58843;BME280;44614;54.356;10.100;2022-11-14T08:54:19;101669.09;;;7.07;100.00
58843;BME280;44614;54.356;10.100;2022-11-14T08:56:44;101657.31;;;7.07;100.00
58843;BME280;44614;54.356;10.100;2022-11-14T08:59:09;101638.34;;;7.05;100.00
58843;BME280;44614;54.356;10.100;2022-11-14T09:01:35;101654.03;;;7.12;100.00
58843;BME280;44614;54.356;10.100;2022-11-14T09:04:00;101637.22;;;7.00;99.32
58843;BME280;44614;54.356;10.100;2022-11-14T09:06:26;101655.13;;;7.02;99.05
58843;BME280;44614;54.356;10.100;2022-11-14T09:08:51;101647.09;;;7.01;99.56
58843;BME280;44614;54.356;10.100;2022-11-14T09:11:16;101647.59;;;7.04;99.74
58843;BME280;44614;54.356;10.100;2022-11-14T09:13:42;101645.34;;;7.08;100.00
58843;BME280;44614;54.356;10.100;2022-11-14T09:16:07;101647.72;;;7.11;99.79
58843;BME280;44614;54.356;10.100;2022-11-14T09:18:32;101643.97;;;7.12;99.81
58843;BME280;44614;54.356;10.100;2022-11-14T09:21:00;101654.88;;;7.12;100.00
58843;BME280;44614;54.356;10.100;2022-11-14T09:23:26;101648.56;;;7.12;99.57
58843;BME280;44614;54.356;10.100;2022-11-14T09:25:51;101638.00;;;7.08;99.19
58843;BME280;44614;54.356;10.100;2022-11-14T09:28:19;101641.97;;;7.06;99.07
58843;BME280;44614;54.356;10.100;2022-11-14T09:30:45;101636.00;;;7.02;98.99
58843;BME280;44614;54.356;10.100;2022-11-14T09:33:10;101642.63;;;7.08;99.72
58843;BME280;44614;54.356;10.100;2022-11-14T09:35:35;101626.53;;;7.13;99.54
58843;BME280;44614;54.356;10.100;2022-11-14T09:38:07;101629.09;;;7.15;99.55
58843;BME280;44614;54.356;10.100;2022-11-14T09:40:49;101626.72;;;7.12;99.04
58843;BME280;44614;54.356;10.100;2022-11-14T09:46:03;101623.38;;;7.01;98.98
58843;BME280;44614;54.356;10.100;2022-11-14T09:48:36;101622.03;;;6.97;98.68
58843;BME280;44614;54.356;10.100;2022-11-14T09:51:12;101615.16;;;7.01;99.27
58843;BME280;44614;54.356;10.100;2022-11-14T09:54:31;101613.13;;;7.03;98.48
58843;BME280;44614;54.356;10.100;2022-11-14T09:56:34;101612.78;;;7.06;99.02
58843;BME280;44614;54.356;10.100;2022-11-14T09:58:59;101612.78;;;7.06;98.90
58843;BME280;44614;54.356;10.100;2022-11-14T10:04:39;101627.13;;;7.00;98.67
58843;BME280;44614;54.356;10.100;2022-11-14T10:07:44;101612.63;;;7.00;98.95
58843;BME280;44614;54.356;10.100;2022-11-14T10:10:29;101624.94;;;6.96;98.99
58843;BME280;44614;54.356;10.100;2022-11-14T10:13:25;101624.09;;;6.95;99.66
58843;BME280;44614;54.356;10.100;2022-11-14T10:16:17;101628.53;;;6.96;99.73
58843;BME280;44614;54.356;10.100;2022-11-14T10:24:21;101603.09;;;6.96;98.34
58843;BME280;44614;54.356;10.100;2022-11-14T10:27:16;101605.34;;;6.92;98.79
58843;BME280;44614;54.356;10.100;2022-11-14T10:37:32;101597.44;;;6.97;99.38
58843;BME280;44614;54.356;10.100;2022-11-14T10:40:13;101594.22;;;6.94;98.90
58843;BME280;44614;54.356;10.100;2022-11-14T10:42:41;101606.28;;;7.07;98.43
58843;BME280;44614;54.356;10.100;2022-11-14T10:45:40;101606.91;;;7.09;97.20
58843;BME280;44614;54.356;10.100;2022-11-14T10:48:27;101600.44;;;7.11;97.31
58843;BME280;44614;54.356;10.100;2022-11-14T10:51:02;101593.94;;;7.12;95.83
58843;BME280;44614;54.356;10.100;2022-11-14T10:56:20;101593.31;;;7.01;96.74
58843;BME280;44614;54.356;10.100;2022-11-14T10:58:46;101597.88;;;7.09;97.18
58843;BME280;44614;54.356;10.100;2022-11-14T11:01:40;101593.22;;;7.18;97.63
58843;BME280;44614;54.356;10.100;2022-11-14T11:04:35;101594.22;;;7.17;96.52
58843;BME280;44614;54.356;10.100;2022-11-14T11:09:37;101581.69;;;7.07;95.76
58843;BME280;44614;54.356;10.100;2022-11-14T11:12:39;101572.72;;;6.99;95.58
58843;BME280;44614;54.356;10.100;2022-11-14T11:15:21;101564.31;;;7.00;95.78
58843;BME280;44614;54.356;10.100;2022-11-14T11:18:04;101574.53;;;7.06;96.58
58843;BME280;44614;54.356;10.100;2022-11-14T11:20:40;101567.00;;;7.08;96.53
58843;BME280;44614;54.356;10.100;2022-11-14T11:25:35;101550.47;;;7.25;96.10
58843;BME280;44614;54.356;10.100;2022-11-14T11:28:05;101542.47;;;7.23;95.90
58843;BME280;44614;54.356;10.100;2022-11-14T11:30:32;101550.09;;;7.28;97.16
58843;BME280;44614;54.356;10.100;2022-11-14T11:35:46;101545.47;;;7.28;94.79
58843;BME280;44614;54.356;10.100;2022-11-14T11:38:13;101537.03;;;7.38;95.96
58843;BME280;44614;54.356;10.100;2022-11-14T11:40:42;101519.13;;;7.36;95.81
58843;BME280;44614;54.356;10.100;2022-11-14T11:43:18;101511.59;;;7.38;95.61
58843;BME280;44614;54.356;10.100;2022-11-14T11:45:48;101504.88;;;7.40;96.64
58843;BME280;44614;54.356;10.100;2022-11-14T11:48:19;101521.03;;;7.50;95.87
58843;BME280;44614;54.356;10.100;2022-11-14T11:50:46;101514.16;;;7.54;96.44
58843;BME280;44614;54.356;10.100;2022-11-14T11:53:30;101525.78;;;7.56;95.93
58843;BME280;44614;54.356;10.100;2022-11-14T11:56:01;101519.81;;;7.52;95.41
58843;BME280;44614;54.356;10.100;2022-11-14T11:58:32;101518.09;;;7.51;95.67
58843;BME280;44614;54.356;10.100;2022-11-14T12:00:59;101518.88;;;7.45;95.05
58843;BME280;44614;54.356;10.100;2022-11-14T12:03:25;101516.50;;;7.42;95.66
58843;BME280;44614;54.356;10.100;2022-11-14T12:06:15;101506.88;;;7.46;96.42
58843;BME280;44614;54.356;10.100;2022-11-14T12:11:33;101413.16;;;6.93;95.70
58843;BME280;44614;54.356;10.100;2022-11-14T12:14:12;101491.06;;;7.56;96.07
58843;BME280;44614;54.356;10.100;2022-11-14T12:20:45;101495.88;;;7.54;95.40
58843;BME280;44614;54.356;10.100;2022-11-14T12:28:54;101474.38;;;7.51;95.48
58843;BME280;44614;54.356;10.100;2022-11-14T12:31:27;101471.47;;;7.53;95.29
58843;BME280;44614;54.356;10.100;2022-11-14T12:34:02;101467.53;;;7.55;95.72
58843;BME280;44614;54.356;10.100;2022-11-14T12:36:31;101471.38;;;7.61;96.16
58843;BME280;44614;54.356;10.100;2022-11-14T12:38:58;101480.69;;;7.67;96.06
58843;BME280;44614;54.356;10.100;2022-11-14T12:41:27;101466.94;;;7.75;96.45
58843;BME280;44614;54.356;10.100;2022-11-14T12:44:33;101470.06;;;7.87;95.03
58843;BME280;44614;54.356;10.100;2022-11-14T12:57:58;101424.72;;;8.14;93.58
58843;BME280;44614;54.356;10.100;2022-11-14T13:00:29;101410.59;;;8.31;94.46
58843;BME280;44614;54.356;10.100;2022-11-14T13:14:17;101408.88;;;8.67;91.93
58843;BME280;44614;54.356;10.100;2022-11-14T13:17:28;101410.03;;;8.79;91.16
58843;BME280;44614;54.356;10.100;2022-11-14T13:20:38;101402.72;;;8.86;90.15
58843;BME280;44614;54.356;10.100;2022-11-14T13:33:42;101389.38;;;8.76;92.79
58843;BME280;44614;54.356;10.100;2022-11-14T13:39:05;101376.94;;;8.74;92.27
58843;BME280;44614;54.356;10.100;2022-11-14T13:47:11;101382.81;;;8.71;93.47
58843;BME280;44614;54.356;10.100;2022-11-14T13:52:14;101383.59;;;8.65;93.53
58843;BME280;44614;54.356;10.100;2022-11-14T13:54:48;101373.16;;;8.53;92.75
58843;BME280;44614;54.356;10.100;2022-11-14T13:57:44;101382.19;;;8.47;92.73
58843;BME280;44614;54.356;10.100;2022-11-14T14:00:13;101377.94;;;8.45;94.03
58843;BME280;44614;54.356;10.100;2022-11-14T14:05:29;101371.72;;;8.36;94.20
58843;BME280;44614;54.356;10.100;2022-11-14T14:08:07;101372.75;;;8.35;94.64
58843;BME280;44614;54.356;10.100;2022-11-14T14:16:12;101360.91;;;8.28;94.72
58843;BME280;44614;54.356;10.100;2022-11-14T14:18:56;101362.13;;;8.25;94.33
58843;BME280;44614;54.356;10.100;2022-11-14T14:21:43;101370.94;;;8.21;94.90
58843;BME280;44614;54.356;10.100;2022-11-14T14:32:19;101355.03;;;8.10;95.77
58843;BME280;44614;54.356;10.100;2022-11-14T14:34:45;101360.69;;;8.08;95.89
58843;BME280;44614;54.356;10.100;2022-11-14T14:37:22;101347.22;;;8.06;95.89